Arvilla, North Dakota
Current Conditions -  °F | °C
As of 9:18 PM on Sunday 21 Dec 2014 (Local Time) from KRDR Reporting Station
Overcast Overcast  
Wind Chill: 23°   Ceiling: 700
Heat Index: 32°   Visibility: 10mi
Dew Point: 32°   Wind: 12mph
Humidity: 100%   Direction: 180°S
Pressure: 29.57"   Gusts: NA
Location:  47.92°N, 97.49°W
Report Text: KRDR 220318Z AUTO 18010KT 10SM OVC007 00/00 A2957 RMK AO2
Loading
Personal Weather Stations






























Interactive Weather Map New forecast layout! Learn more

10-Day Weather Forecast

Advertisements
Track Severe Weather on mobile